메인 페이지
METAR-TAF:

METAR-TAF

공항 :

마리스칼 수크레 국제공항

키토, 에콰도르

위도: 0-06-48S, 경도: 78-21-31W, 고도: 2400m

현재 날씨관측

예보는 28분 전, 23:00시(UTC)에 발표되었습니다.
8kt
온도 16°C
습도 77%
기압 1026 hPa
시정 10km 이상
고도 3000ft 상공 구름 조금
고도 10000ft 상공 구름 보통

METAR: SEQM 012300Z 36008KT 9999 FEW030 SCT100 16/12 Q1026 NOSIG RMK A3032

시각: 18:28 (23:28 UTC)

예보

예보는 6 시간 40분 전, 16:48시(UTC)에 발표되었습니다.
예보 대상 시간: 01일 18시부터 02일 18시까지 (UTC)
10kt
시정 10km 이상
고도 3000ft 상공 구름 보통
고도 30000ft 상공 구름 보통
일시적
01일 21시부터 01일 23시까지 (UTC)
고도 3000ft 상공 구름 많음
고도 10000ft 상공 구름 보통
전환 중
02일 00시부터 02일 01시까지 (UTC)
북북동4kt
고도 500ft 상공 구름 보통
고도 2000ft 상공 구름 많음
전환 중
02일 12시부터 02일 13시까지 (UTC)
여러 방향의 바람 3kt
고도 3000ft 상공 구름 보통
고도 30000ft 상공 구름 보통

TAF: SEQM 011648Z 0118/0218 36010KT 9999 SCT030 SCT300 TEMPO 0121/0123 RA BKN030 SCT100 BECMG 0200/0201 03004KT SCT005 BKN020 BECMG 0212/0213 VRB03KT SCT030 SCT300 TX24/0119Z TN11/0211Z

4,000개 이상의 공항 관측 자료 및 예보 (METAR 및 TAF 보고).

지도상에서 검색 가능한 기상관측소가 노란 점과 빨간 점으로 표시되어 있습니다.

기상관측소 명을 보려면 표시 위로 마우스를 이동하세요.

날씨 관측과 예보를 보려면 클릭하세요.

지도 변경 : 확대하려면 엑스 표시가 있는 녹색 버튼, 축소하려면 빼기 표시가 있는 녹색 버튼, 다음 페이지의 지도를 보려면 녹색 화살표를 클릭하세요.


METAR-TAF: